createdAt,value
2023-05-01T00:04:09.315Z,101251.91
2023-05-01T00:09:15.908Z,101252.02
2023-05-01T00:14:21.605Z,101256.79
2023-05-01T00:19:27.407Z,101256.23
2023-05-01T00:24:33.470Z,101254.13
2023-05-01T00:29:39.039Z,101255.18
2023-05-01T00:34:46.224Z,101259.86
2023-05-01T00:39:51.948Z,101261.49
2023-05-01T00:44:57.707Z,101261.41
2023-05-01T00:50:03.995Z,101260.91
2023-05-01T00:55:10.542Z,101262.23
2023-05-01T01:00:17.505Z,101265.08
2023-05-01T01:05:28.351Z,101264.14
2023-05-01T01:10:35.547Z,101262.00
2023-05-01T01:15:47.719Z,101267.39
2023-05-01T01:21:01.656Z,101268.98
2023-05-01T01:26:30.333Z,101265.61
2023-05-01T01:31:46.757Z,101267.56
2023-05-01T01:37:01.655Z,101270.43
2023-05-01T01:42:13.686Z,101268.96
2023-05-01T01:47:22.115Z,101270.59
2023-05-01T01:52:29.294Z,101270.05
2023-05-01T01:57:36.844Z,101268.27
2023-05-01T02:02:43.331Z,101265.10
2023-05-01T02:07:51.664Z,101263.89
2023-05-01T02:13:00.262Z,101264.90
2023-05-01T02:18:07.114Z,101274.63
2023-05-01T02:23:13.850Z,101277.09
2023-05-01T02:28:24.475Z,101278.52
2023-05-01T02:33:29.972Z,101280.73
2023-05-01T02:38:36.360Z,101273.79
2023-05-01T02:43:43.914Z,101272.88
2023-05-01T02:48:51.144Z,101282.99
2023-05-01T02:53:58.176Z,101279.80
2023-05-01T02:59:06.596Z,101275.31
2023-05-01T03:04:12.923Z,101276.19
2023-05-01T03:09:19.285Z,101275.90
2023-05-01T03:14:25.195Z,101283.71
2023-05-01T03:19:30.961Z,101282.45
2023-05-01T03:24:37.161Z,101280.26
2023-05-01T03:29:43.093Z,101273.95
2023-05-01T03:34:48.991Z,101275.35
2023-05-01T03:39:55.401Z,101272.80
2023-05-01T03:45:29.979Z,101275.64
2023-05-01T03:50:35.530Z,101272.35
2023-05-01T03:55:41.524Z,101270.35
2023-05-01T04:00:47.570Z,101275.30
2023-05-01T04:05:53.382Z,101276.56
2023-05-01T04:11:00.013Z,101275.27
2023-05-01T04:16:06.869Z,101273.41
2023-05-01T04:21:14.536Z,101270.52
2023-05-01T04:26:20.434Z,101263.63
2023-05-01T04:31:29.013Z,101271.20
2023-05-01T04:36:34.934Z,101270.41
2023-05-01T04:41:40.474Z,101259.69
2023-05-01T04:46:46.334Z,101256.89
2023-05-01T04:51:52.421Z,101251.31
2023-05-01T04:57:00.549Z,101246.35
2023-05-01T05:02:06.679Z,101248.05
2023-05-01T05:07:13.896Z,101244.00
2023-05-01T05:12:40.096Z,101239.86
2023-05-01T05:17:45.791Z,101240.80
2023-05-01T05:22:51.552Z,101241.61
2023-05-01T05:28:01.068Z,101238.42
2023-05-01T05:33:09.275Z,101232.14
2023-05-01T05:38:16.150Z,101230.30
2023-05-01T05:43:22.332Z,101228.05
2023-05-01T05:48:28.273Z,101238.77
2023-05-01T05:53:33.687Z,101241.19
2023-05-01T05:58:39.249Z,101234.23
2023-05-01T06:03:44.899Z,101240.39
2023-05-01T06:08:50.693Z,101240.68
2023-05-01T06:13:57.441Z,101238.50
2023-05-01T06:19:03.657Z,101242.69
2023-05-01T06:24:09.378Z,101241.88
2023-05-01T06:29:24.332Z,101243.25
2023-05-01T06:34:30.300Z,101247.11
2023-05-01T06:39:36.341Z,101248.33
2023-05-01T06:44:42.156Z,101243.69
2023-05-01T06:49:47.848Z,101242.11
2023-05-01T06:54:56.013Z,101240.89
2023-05-01T07:00:01.932Z,101239.46
2023-05-01T07:05:08.546Z,101237.64
2023-05-01T07:10:14.639Z,101233.77
2023-05-01T07:15:21.129Z,101229.13
2023-05-01T07:20:27.097Z,101224.02
2023-05-01T07:25:33.175Z,101224.75
2023-05-01T07:30:38.844Z,101224.04
2023-05-01T07:35:44.435Z,101220.65
2023-05-01T07:40:52.277Z,101220.30
2023-05-01T07:45:59.433Z,101224.17
2023-05-01T07:51:05.622Z,101225.01
2023-05-01T07:56:11.575Z,101219.44
2023-05-01T08:01:17.412Z,101217.65
2023-05-01T08:06:23.073Z,101218.13
2023-05-01T08:11:29.960Z,101218.16
2023-05-01T08:16:36.613Z,101221.55
2023-05-01T08:21:42.047Z,101221.14
2023-05-01T08:26:48.926Z,101223.48
2023-05-01T08:31:56.083Z,101221.02
2023-05-01T08:37:02.256Z,101220.70
2023-05-01T08:42:09.856Z,101224.38
2023-05-01T08:47:18.404Z,101225.70
2023-05-01T08:52:26.228Z,101217.66
2023-05-01T08:57:32.564Z,101219.08
2023-05-01T09:02:41.241Z,101212.63
2023-05-01T09:07:48.533Z,101212.40
2023-05-01T09:12:58.580Z,101207.61
2023-05-01T09:18:04.625Z,101211.85
2023-05-01T09:23:11.384Z,101210.09
2023-05-01T09:28:16.912Z,101202.38
2023-05-01T09:33:22.477Z,101196.77
2023-05-01T09:38:29.392Z,101186.64
2023-05-01T09:43:35.394Z,101188.49
2023-05-01T09:48:41.001Z,101176.31
2023-05-01T09:53:46.351Z,101173.61
2023-05-01T09:58:54.205Z,101173.45
2023-05-01T10:03:59.685Z,101172.15
2023-05-01T10:09:16.787Z,101170.02
2023-05-01T10:14:24.206Z,101160.08
2023-05-01T10:19:31.153Z,101154.16
2023-05-01T10:24:38.169Z,101141.13
2023-05-01T10:29:48.245Z,101141.05
2023-05-01T10:34:59.516Z,101136.79
2023-05-01T10:40:33.200Z,101129.39
2023-05-01T10:45:39.786Z,101124.75
2023-05-01T10:51:11.461Z,101117.64
2023-05-01T10:56:44.179Z,101113.17
2023-05-01T11:01:54.186Z,101113.42
2023-05-01T11:07:17.938Z,101113.56
2023-05-01T11:12:51.738Z,101101.48
2023-05-01T11:17:58.139Z,101093.91
2023-05-01T11:23:04.099Z,101089.77
2023-05-01T11:28:11.620Z,101084.84
2023-05-01T11:33:25.977Z,101076.73
2023-05-01T11:38:31.872Z,101069.48
2023-05-01T11:43:51.612Z,101067.48
2023-05-01T11:48:58.488Z,101063.46
2023-05-01T11:54:05.301Z,101057.84
2023-05-01T11:59:18.173Z,101049.45
2023-05-01T12:04:31.586Z,101036.95
2023-05-01T12:09:38.237Z,101041.55
2023-05-01T12:14:43.854Z,101043.35
2023-05-01T12:19:49.871Z,101036.10
2023-05-01T12:24:56.280Z,101023.60
2023-05-01T12:30:02.390Z,101020.92
2023-05-01T12:35:16.537Z,101014.47
2023-05-01T12:40:22.896Z,101008.05
2023-05-01T12:45:29.022Z,101000.95
2023-05-01T12:50:39.304Z,100993.50
2023-05-01T12:55:47.306Z,100996.04
2023-05-01T13:00:55.138Z,100985.16
2023-05-01T13:06:03.199Z,100985.49
2023-05-01T13:11:14.886Z,100979.19
2023-05-01T13:16:21.412Z,100970.85
2023-05-01T13:21:27.329Z,100966.25
2023-05-01T13:26:35.967Z,100958.27
2023-05-01T13:31:45.259Z,100953.28
2023-05-01T13:36:50.913Z,100947.58
2023-05-01T13:41:56.590Z,100940.04
2023-05-01T13:47:04.479Z,100942.33
2023-05-01T13:52:13.271Z,100935.06
2023-05-01T13:57:18.700Z,100931.94
2023-05-01T14:02:27.465Z,100926.92
2023-05-01T14:07:33.161Z,100919.20
2023-05-01T14:12:40.768Z,100919.30
2023-05-01T14:17:48.557Z,100909.83
2023-05-01T14:22:56.328Z,100902.37
2023-05-01T14:28:05.837Z,100899.03
2023-05-01T14:33:13.516Z,100887.77
2023-05-01T14:38:21.455Z,100890.81
2023-05-01T14:43:28.668Z,100887.35
2023-05-01T14:48:37.138Z,100878.45
2023-05-01T14:53:43.749Z,100878.17
2023-05-01T14:58:49.767Z,100869.61
2023-05-01T15:03:55.534Z,100872.52
2023-05-01T15:09:02.361Z,100865.80
2023-05-01T15:14:08.011Z,100860.29
2023-05-01T15:19:13.570Z,100857.09
2023-05-01T15:24:23.455Z,100853.03
2023-05-01T15:29:29.138Z,100846.35
2023-05-01T15:34:34.844Z,100840.34
2023-05-01T15:39:40.706Z,100835.33
2023-05-01T15:44:47.232Z,100827.44
2023-05-01T15:49:53.921Z,100824.00
2023-05-01T15:55:00.396Z,100827.16
2023-05-01T16:00:08.884Z,100833.89
2023-05-01T16:05:17.329Z,100832.95
2023-05-01T16:10:23.231Z,100826.95
2023-05-01T16:15:30.137Z,100825.17
2023-05-01T16:20:41.762Z,100821.80
2023-05-01T16:25:47.362Z,100812.64
2023-05-01T16:30:52.936Z,100811.42
2023-05-01T16:35:59.555Z,100810.06
2023-05-01T16:41:05.314Z,100800.76
2023-05-01T16:46:12.443Z,100798.44
2023-05-01T16:51:20.059Z,100797.29
2023-05-01T16:56:25.749Z,100790.52
2023-05-01T17:01:31.364Z,100788.02
2023-05-01T17:06:37.369Z,100790.48
2023-05-01T17:11:43.182Z,100791.50
2023-05-01T17:16:50.164Z,100787.50
2023-05-01T17:21:58.255Z,100791.28
2023-05-01T17:27:03.796Z,100791.19
2023-05-01T17:32:09.511Z,100787.65
2023-05-01T17:37:15.468Z,100784.80
2023-05-01T17:42:29.826Z,100782.42
2023-05-01T17:47:35.845Z,100778.16
2023-05-01T17:52:43.503Z,100779.58
2023-05-01T17:57:48.988Z,100780.84
2023-05-01T18:02:55.741Z,100784.77
2023-05-01T18:08:02.102Z,100788.42
2023-05-01T18:13:07.985Z,100790.14
2023-05-01T18:18:13.527Z,100790.61
2023-05-01T18:23:19.563Z,100791.11
2023-05-01T18:28:25.059Z,100794.31
2023-05-01T18:33:30.640Z,100794.72
2023-05-01T18:38:38.754Z,100795.07
2023-05-01T18:43:44.753Z,100796.39
2023-05-01T18:48:50.854Z,100792.52
2023-05-01T18:53:56.736Z,100791.33
2023-05-01T18:59:02.583Z,100790.59
2023-05-01T19:04:08.104Z,100792.24
2023-05-01T19:09:13.622Z,100790.64
2023-05-01T19:14:21.483Z,100796.57
2023-05-01T19:19:27.191Z,100787.85
2023-05-01T19:24:33.119Z,100779.67
2023-05-01T19:29:39.771Z,100772.91
2023-05-01T19:34:45.374Z,100767.83
2023-05-01T19:39:51.013Z,100762.10
2023-05-01T19:44:56.670Z,100767.33
2023-05-01T19:50:02.557Z,100769.90
2023-05-01T19:55:09.530Z,100768.98
2023-05-01T20:00:17.152Z,100766.27
2023-05-01T20:05:27.950Z,100755.73
2023-05-01T20:10:33.788Z,100755.48
2023-05-01T20:15:39.681Z,100752.34
2023-05-01T20:20:45.468Z,100755.43
2023-05-01T20:25:57.836Z,100749.78
2023-05-01T20:31:03.670Z,100741.25
2023-05-01T20:36:09.329Z,100750.71
2023-05-01T20:41:15.465Z,100751.64
2023-05-01T20:46:22.166Z,100746.56
2023-05-01T20:51:28.335Z,100747.38
2023-05-01T20:56:33.874Z,100746.93
2023-05-01T21:01:39.448Z,100741.52
2023-05-01T21:06:45.600Z,100745.35
2023-05-01T21:11:51.845Z,100746.61
2023-05-01T21:16:57.854Z,100758.34
2023-05-01T21:22:03.879Z,100760.54
2023-05-01T21:27:09.909Z,100759.64
2023-05-01T21:32:17.934Z,100760.95
2023-05-01T21:37:23.573Z,100759.39
2023-05-01T21:42:34.683Z,100757.75
2023-05-01T21:47:41.562Z,100762.02
2023-05-01T21:52:49.421Z,100760.58
2023-05-01T21:57:58.512Z,100755.13
2023-05-01T22:03:07.063Z,100751.71
2023-05-01T22:08:12.813Z,100750.55
2023-05-01T22:13:18.817Z,100746.92
2023-05-01T22:18:24.510Z,100745.48
2023-05-01T22:23:30.393Z,100747.48
2023-05-01T22:28:35.872Z,100738.80
2023-05-01T22:33:41.657Z,100734.11
2023-05-01T22:38:47.298Z,100732.16
2023-05-01T22:43:52.990Z,100735.20
2023-05-01T22:48:59.720Z,100734.93
2023-05-01T22:54:05.315Z,100726.52
2023-05-01T22:59:11.148Z,100722.94
2023-05-01T23:04:17.043Z,100722.43
2023-05-01T23:09:22.930Z,100713.61
2023-05-01T23:14:28.762Z,100712.23
2023-05-01T23:19:34.290Z,100708.73
2023-05-01T23:24:44.263Z,100705.95
2023-05-01T23:29:54.590Z,100698.45
2023-05-01T23:35:05.437Z,100701.14
2023-05-01T23:40:12.101Z,100697.56
2023-05-01T23:45:18.282Z,100691.80
2023-05-01T23:50:25.418Z,100685.73
2023-05-01T23:55:31.856Z,100681.00
